sensor_id;sensor_type;location;lat;lon;timestamp;pressure;altitude;pressure_sealevel;temperature;humidity
45040;BME280;30778;53.574;7.770;2023-09-30T00:00:52;102219.69;;;9.74;59.67
45040;BME280;30778;53.574;7.770;2023-09-30T00:03:18;102223.75;;;9.95;59.45
45040;BME280;30778;53.574;7.770;2023-09-30T00:05:46;102233.03;;;10.13;59.43
45040;BME280;30778;53.574;7.770;2023-09-30T00:08:11;102239.50;;;9.90;59.54
45040;BME280;30778;53.574;7.770;2023-09-30T00:10:37;102235.59;;;10.14;59.00
45040;BME280;30778;53.574;7.770;2023-09-30T00:13:05;102227.56;;;10.28;58.45
45040;BME280;30778;53.574;7.770;2023-09-30T00:15:34;102229.28;;;10.28;58.18
45040;BME280;30778;53.574;7.770;2023-09-30T00:18:00;102234.66;;;10.21;58.32
45040;BME280;30778;53.574;7.770;2023-09-30T00:20:27;102222.75;;;10.02;59.00
45040;BME280;30778;53.574;7.770;2023-09-30T00:22:53;102223.72;;;9.96;59.06
45040;BME280;30778;53.574;7.770;2023-09-30T00:25:18;102223.56;;;10.06;58.93
45040;BME280;30778;53.574;7.770;2023-09-30T00:27:47;102236.78;;;9.96;58.69
45040;BME280;30778;53.574;7.770;2023-09-30T00:30:12;102235.72;;;10.08;58.54
45040;BME280;30778;53.574;7.770;2023-09-30T00:32:38;102241.91;;;10.01;58.98
45040;BME280;30778;53.574;7.770;2023-09-30T00:35:05;102243.75;;;9.96;59.04
45040;BME280;30778;53.574;7.770;2023-09-30T00:37:37;102244.50;;;10.02;58.63
45040;BME280;30778;53.574;7.770;2023-09-30T00:40:03;102248.97;;;9.96;58.94
45040;BME280;30778;53.574;7.770;2023-09-30T00:42:30;102252.47;;;9.95;58.76
45040;BME280;30778;53.574;7.770;2023-09-30T00:44:55;102250.03;;;9.83;59.48
45040;BME280;30778;53.574;7.770;2023-09-30T00:47:21;102242.97;;;9.89;59.73
45040;BME280;30778;53.574;7.770;2023-09-30T00:49:49;102246.53;;;9.85;59.74
45040;BME280;30778;53.574;7.770;2023-09-30T00:52:14;102243.84;;;9.90;59.50
45040;BME280;30778;53.574;7.770;2023-09-30T00:54:40;102245.44;;;10.00;59.19
45040;BME280;30778;53.574;7.770;2023-09-30T00:57:06;102252.44;;;9.96;59.17
45040;BME280;30778;53.574;7.770;2023-09-30T00:59:32;102251.56;;;9.97;59.14
45040;BME280;30778;53.574;7.770;2023-09-30T01:01:59;102249.06;;;9.90;58.90
45040;BME280;30778;53.574;7.770;2023-09-30T01:04:28;102246.50;;;9.87;59.29
45040;BME280;30778;53.574;7.770;2023-09-30T01:06:54;102252.72;;;9.79;59.15
45040;BME280;30778;53.574;7.770;2023-09-30T01:09:20;102252.69;;;9.78;58.93
45040;BME280;30778;53.574;7.770;2023-09-30T01:11:46;102254.44;;;9.80;58.72
45040;BME280;30778;53.574;7.770;2023-09-30T01:14:27;102256.22;;;9.77;58.79
45040;BME280;30778;53.574;7.770;2023-09-30T01:16:54;102249.31;;;9.71;59.19
45040;BME280;30778;53.574;7.770;2023-09-30T01:19:20;102246.72;;;9.70;59.00
45040;BME280;30778;53.574;7.770;2023-09-30T01:21:47;102242.44;;;9.64;58.94
45040;BME280;30778;53.574;7.770;2023-09-30T01:24:22;102242.50;;;9.61;58.96
45040;BME280;30778;53.574;7.770;2023-09-30T01:26:48;102253.81;;;9.60;59.08
45040;BME280;30778;53.574;7.770;2023-09-30T01:29:14;102248.59;;;9.60;59.14
45040;BME280;30778;53.574;7.770;2023-09-30T01:31:39;102250.38;;;9.58;59.24
45040;BME280;30778;53.574;7.770;2023-09-30T01:34:05;102257.34;;;9.56;59.46
45040;BME280;30778;53.574;7.770;2023-09-30T01:36:31;102256.56;;;9.51;59.78
45040;BME280;30778;53.574;7.770;2023-09-30T01:38:57;102260.41;;;9.24;60.75
45040;BME280;30778;53.574;7.770;2023-09-30T01:41:23;102267.25;;;9.29;60.86
45040;BME280;30778;53.574;7.770;2023-09-30T01:43:49;102261.13;;;9.35;60.82
45040;BME280;30778;53.574;7.770;2023-09-30T01:46:14;102261.78;;;9.51;60.11
45040;BME280;30778;53.574;7.770;2023-09-30T01:48:40;102267.91;;;9.48;60.04
45040;BME280;30778;53.574;7.770;2023-09-30T01:51:06;102271.38;;;9.49;59.88
45040;BME280;30778;53.574;7.770;2023-09-30T01:53:32;102277.00;;;9.15;61.25
45040;BME280;30778;53.574;7.770;2023-09-30T01:55:58;102275.78;;;9.44;60.20
45040;BME280;30778;53.574;7.770;2023-09-30T01:58:23;102280.91;;;9.51;60.01
45040;BME280;30778;53.574;7.770;2023-09-30T02:00:50;102286.19;;;9.45;60.13
45040;BME280;30778;53.574;7.770;2023-09-30T02:03:16;102285.34;;;9.43;60.00
45040;BME280;30778;53.574;7.770;2023-09-30T02:05:42;102288.06;;;9.35;60.35
45040;BME280;30778;53.574;7.770;2023-09-30T02:08:08;102284.47;;;9.46;60.14
45040;BME280;30778;53.574;7.770;2023-09-30T02:10:34;102278.63;;;9.25;60.75
45040;BME280;30778;53.574;7.770;2023-09-30T02:13:00;102278.53;;;9.33;60.56
45040;BME280;30778;53.574;7.770;2023-09-30T02:15:26;102270.78;;;9.28;61.00
45040;BME280;30778;53.574;7.770;2023-09-30T02:17:51;102271.50;;;9.38;60.58
45040;BME280;30778;53.574;7.770;2023-09-30T02:20:17;102279.56;;;9.19;61.37
45040;BME280;30778;53.574;7.770;2023-09-30T02:22:47;102281.03;;;9.42;60.61
45040;BME280;30778;53.574;7.770;2023-09-30T02:25:14;102287.88;;;9.51;60.01
45040;BME280;30778;53.574;7.770;2023-09-30T02:27:41;102286.06;;;9.56;59.85
45040;BME280;30778;53.574;7.770;2023-09-30T02:30:08;102284.78;;;9.21;61.12
45040;BME280;30778;53.574;7.770;2023-09-30T02:32:34;102284.63;;;9.33;60.99
45040;BME280;30778;53.574;7.770;2023-09-30T02:34:59;102288.78;;;9.47;60.34
45040;BME280;30778;53.574;7.770;2023-09-30T02:37:25;102282.66;;;9.51;60.03
45040;BME280;30778;53.574;7.770;2023-09-30T02:39:51;102280.03;;;9.51;59.71
45040;BME280;30778;53.574;7.770;2023-09-30T02:42:16;102288.72;;;9.53;59.65
45040;BME280;30778;53.574;7.770;2023-09-30T02:44:44;102272.38;;;9.38;60.14
45040;BME280;30778;53.574;7.770;2023-09-30T02:47:09;102287.03;;;9.49;59.74
45040;BME280;30778;53.574;7.770;2023-09-30T02:49:38;102275.69;;;9.51;59.94
45040;BME280;30778;53.574;7.770;2023-09-30T02:52:04;102277.38;;;9.54;59.93
45040;BME280;30778;53.574;7.770;2023-09-30T02:54:31;102276.53;;;9.52;59.75
45040;BME280;30778;53.574;7.770;2023-09-30T02:56:56;102289.66;;;9.49;59.80
45040;BME280;30778;53.574;7.770;2023-09-30T02:59:22;102284.44;;;9.47;60.25
45040;BME280;30778;53.574;7.770;2023-09-30T03:01:49;102285.22;;;9.54;59.87
45040;BME280;30778;53.574;7.770;2023-09-30T03:04:15;102290.41;;;9.57;59.77
45040;BME280;30778;53.574;7.770;2023-09-30T03:06:44;102285.16;;;9.58;59.54
45040;BME280;30778;53.574;7.770;2023-09-30T03:09:10;102290.38;;;9.60;59.39
45040;BME280;30778;53.574;7.770;2023-09-30T03:11:37;102282.53;;;9.62;59.36
45040;BME280;30778;53.574;7.770;2023-09-30T03:14:03;102288.66;;;9.56;59.64
45040;BME280;30778;53.574;7.770;2023-09-30T03:16:29;102285.31;;;9.48;59.99
45040;BME280;30778;53.574;7.770;2023-09-30T03:18:58;102289.66;;;9.49;60.25
45040;BME280;30778;53.574;7.770;2023-09-30T03:21:23;102281.69;;;9.59;60.24
45040;BME280;30778;53.574;7.770;2023-09-30T03:23:49;102288.53;;;9.65;59.85
45040;BME280;30778;53.574;7.770;2023-09-30T03:26:14;102291.09;;;9.71;59.83
45040;BME280;30778;53.574;7.770;2023-09-30T03:28:40;102294.53;;;9.75;59.83
45040;BME280;30778;53.574;7.770;2023-09-30T03:31:06;102289.31;;;9.73;59.76
45040;BME280;30778;53.574;7.770;2023-09-30T03:33:32;102294.72;;;9.61;60.61
45040;BME280;30778;53.574;7.770;2023-09-30T03:35:58;102297.25;;;9.66;60.43
45040;BME280;30778;53.574;7.770;2023-09-30T03:38:24;102296.22;;;9.77;59.79
45040;BME280;30778;53.574;7.770;2023-09-30T03:40:51;102297.16;;;9.73;60.01
45040;BME280;30778;53.574;7.770;2023-09-30T03:43:18;102306.66;;;9.80;59.66
45040;BME280;30778;53.574;7.770;2023-09-30T03:45:44;102299.06;;;9.60;60.24
45040;BME280;30778;53.574;7.770;2023-09-30T03:48:11;102305.06;;;9.67;59.99
45040;BME280;30778;53.574;7.770;2023-09-30T03:50:37;102310.19;;;9.73;59.62
45040;BME280;30778;53.574;7.770;2023-09-30T03:53:04;102310.25;;;9.70;59.62
45040;BME280;30778;53.574;7.770;2023-09-30T03:55:38;102300.59;;;9.75;59.77
45040;BME280;30778;53.574;7.770;2023-09-30T03:58:03;102301.44;;;9.77;59.54
45040;BME280;30778;53.574;7.770;2023-09-30T04:00:29;102293.63;;;9.77;59.43
45040;BME280;30778;53.574;7.770;2023-09-30T04:02:55;102291.41;;;9.45;60.33
45040;BME280;30778;53.574;7.770;2023-09-30T04:05:26;102302.50;;;9.66;60.02
45040;BME280;30778;53.574;7.770;2023-09-30T04:07:57;102293.63;;;9.74;59.91
45040;BME280;30778;53.574;7.770;2023-09-30T04:10:25;102289.53;;;9.58;60.46
45040;BME280;30778;53.574;7.770;2023-09-30T04:12:51;102286.06;;;9.56;60.27
45040;BME280;30778;53.574;7.770;2023-09-30T04:15:18;102292.09;;;9.61;60.27
45040;BME280;30778;53.574;7.770;2023-09-30T04:17:44;102293.03;;;9.57;60.31
45040;BME280;30778;53.574;7.770;2023-09-30T04:20:10;102292.91;;;9.65;59.87
45040;BME280;30778;53.574;7.770;2023-09-30T04:22:41;102304.31;;;9.57;60.17
45040;BME280;30778;53.574;7.770;2023-09-30T04:25:15;102305.03;;;9.69;59.86
45040;BME280;30778;53.574;7.770;2023-09-30T04:27:42;102301.56;;;9.68;59.95
45040;BME280;30778;53.574;7.770;2023-09-30T04:30:08;102306.94;;;9.59;59.97
45040;BME280;30778;53.574;7.770;2023-09-30T04:32:37;102294.53;;;9.73;59.69
45040;BME280;30778;53.574;7.770;2023-09-30T04:35:07;102295.44;;;9.71;59.70
45040;BME280;30778;53.574;7.770;2023-09-30T04:37:34;102298.13;;;9.63;60.31
45040;BME280;30778;53.574;7.770;2023-09-30T04:40:03;102307.66;;;9.69;60.02
45040;BME280;30778;53.574;7.770;2023-09-30T04:42:36;102318.09;;;9.69;59.79
45040;BME280;30778;53.574;7.770;2023-09-30T04:45:05;102320.69;;;9.70;59.44
45040;BME280;30778;53.574;7.770;2023-09-30T04:47:35;102318.09;;;9.69;59.53
45040;BME280;30778;53.574;7.770;2023-09-30T04:50:00;102310.25;;;9.70;59.29
45040;BME280;30778;53.574;7.770;2023-09-30T04:52:30;102312.03;;;9.65;59.41
45040;BME280;30778;53.574;7.770;2023-09-30T04:54:56;102322.53;;;9.62;59.59
45040;BME280;30778;53.574;7.770;2023-09-30T04:57:22;102317.25;;;9.65;59.32
45040;BME280;30778;53.574;7.770;2023-09-30T04:59:47;102319.94;;;9.62;59.28
45040;BME280;30778;53.574;7.770;2023-09-30T05:02:13;102326.13;;;9.55;59.54
45040;BME280;30778;53.574;7.770;2023-09-30T05:04:41;102325.28;;;9.50;59.25
45040;BME280;30778;53.574;7.770;2023-09-30T05:07:08;102326.25;;;9.43;59.90
45040;BME280;30778;53.574;7.770;2023-09-30T05:09:33;102328.81;;;9.47;59.60
45040;BME280;30778;53.574;7.770;2023-09-30T05:11:59;102328.84;;;9.43;59.31
45040;BME280;30778;53.574;7.770;2023-09-30T05:14:24;102330.69;;;9.36;59.64
45040;BME280;30778;53.574;7.770;2023-09-30T05:16:50;102331.56;;;9.33;59.62
45040;BME280;30778;53.574;7.770;2023-09-30T05:19:16;102329.88;;;9.32;59.56
45040;BME280;30778;53.574;7.770;2023-09-30T05:21:42;102336.00;;;9.27;59.92
45040;BME280;30778;53.574;7.770;2023-09-30T05:24:09;102340.34;;;9.28;59.95
45040;BME280;30778;53.574;7.770;2023-09-30T05:26:37;102345.53;;;9.32;59.51
45040;BME280;30778;53.574;7.770;2023-09-30T05:29:02;102346.44;;;9.27;59.65
45040;BME280;30778;53.574;7.770;2023-09-30T05:31:29;102349.03;;;9.28;59.77
45040;BME280;30778;53.574;7.770;2023-09-30T05:33:54;102346.66;;;9.08;60.29
45040;BME280;30778;53.574;7.770;2023-09-30T05:36:20;102356.06;;;9.20;60.08
45040;BME280;30778;53.574;7.770;2023-09-30T05:38:46;102356.88;;;9.27;59.79
45040;BME280;30778;53.574;7.770;2023-09-30T05:41:14;102358.63;;;9.25;59.36
45040;BME280;30778;53.574;7.770;2023-09-30T05:43:40;102360.38;;;9.23;59.48
45040;BME280;30778;53.574;7.770;2023-09-30T05:46:08;102361.19;;;9.29;60.12
45040;BME280;30778;53.574;7.770;2023-09-30T05:48:34;102362.91;;;9.32;59.91
45040;BME280;30778;53.574;7.770;2023-09-30T05:51:00;102368.13;;;9.33;59.82
45040;BME280;30778;53.574;7.770;2023-09-30T05:53:25;102361.34;;;9.14;60.69
45040;BME280;30778;53.574;7.770;2023-09-30T05:55:53;102364.69;;;9.28;60.36
45040;BME280;30778;53.574;7.770;2023-09-30T05:58:18;102358.63;;;9.26;59.96
45040;BME280;30778;53.574;7.770;2023-09-30T06:00:44;102350.16;;;9.03;60.75
45040;BME280;30778;53.574;7.770;2023-09-30T06:03:10;102369.00;;;9.32;59.89
45040;BME280;30778;53.574;7.770;2023-09-30T06:05:42;102375.59;;;9.63;59.85
45040;BME280;30778;53.574;7.770;2023-09-30T06:08:09;102372.03;;;9.71;59.01
45040;BME280;30778;53.574;7.770;2023-09-30T06:10:42;102374.53;;;9.84;59.25
45040;BME280;30778;53.574;7.770;2023-09-30T06:13:09;102378.78;;;9.91;58.47
45040;BME280;30778;53.574;7.770;2023-09-30T06:15:40;102376.22;;;9.85;58.75
45040;BME280;30778;53.574;7.770;2023-09-30T06:18:06;102381.38;;;9.91;58.66
45040;BME280;30778;53.574;7.770;2023-09-30T06:20:31;102388.09;;;10.10;58.21
45040;BME280;30778;53.574;7.770;2023-09-30T06:22:59;102386.28;;;10.15;57.93
45040;BME280;30778;53.574;7.770;2023-09-30T06:25:28;102393.34;;;10.07;58.32
45040;BME280;30778;53.574;7.770;2023-09-30T06:27:56;102394.63;;;10.39;57.22
45040;BME280;30778;53.574;7.770;2023-09-30T06:30:22;102399.84;;;10.39;56.61
45040;BME280;30778;53.574;7.770;2023-09-30T06:32:57;102393.91;;;10.31;56.88
45040;BME280;30778;53.574;7.770;2023-09-30T06:35:25;102390.94;;;10.52;56.45
45040;BME280;30778;53.574;7.770;2023-09-30T06:37:51;102392.69;;;11.06;55.76
45040;BME280;30778;53.574;7.770;2023-09-30T06:40:17;102392.44;;;11.65;54.54
45040;BME280;30778;53.574;7.770;2023-09-30T06:42:42;102401.03;;;11.72;52.45
45040;BME280;30778;53.574;7.770;2023-09-30T06:45:09;102405.25;;;12.22;52.82
45040;BME280;30778;53.574;7.770;2023-09-30T06:47:36;102411.53;;;12.51;51.56
45040;BME280;30778;53.574;7.770;2023-09-30T06:50:03;102412.19;;;12.23;50.83
45040;BME280;30778;53.574;7.770;2023-09-30T06:52:39;102407.31;;;12.83;50.44
45040;BME280;30778;53.574;7.770;2023-09-30T06:55:08;102409.72;;;13.25;49.92
45040;BME280;30778;53.574;7.770;2023-09-30T06:57:34;102418.53;;;13.57;48.89
45040;BME280;30778;53.574;7.770;2023-09-30T07:00:01;102414.53;;;14.03;49.40
45040;BME280;30778;53.574;7.770;2023-09-30T07:02:29;102409.16;;;14.35;46.83
45040;BME280;30778;53.574;7.770;2023-09-30T07:04:55;102419.72;;;14.06;47.40
45040;BME280;30778;53.574;7.770;2023-09-30T07:07:20;102424.38;;;13.96;47.58
45040;BME280;30778;53.574;7.770;2023-09-30T07:09:46;102420.53;;;14.36;47.29
45040;BME280;30778;53.574;7.770;2023-09-30T07:12:11;102422.91;;;14.15;47.82
45040;BME280;30778;53.574;7.770;2023-09-30T07:14:37;102421.44;;;14.63;46.02
45040;BME280;30778;53.574;7.770;2023-09-30T07:17:03;102427.00;;;14.54;45.82
45040;BME280;30778;53.574;7.770;2023-09-30T07:19:30;102421.25;;;14.69;46.30
45040;BME280;30778;53.574;7.770;2023-09-30T07:21:56;102433.59;;;15.19;46.22
45040;BME280;30778;53.574;7.770;2023-09-30T07:24:22;102429.91;;;15.50;44.03
45040;BME280;30778;53.574;7.770;2023-09-30T07:26:47;102441.81;;;15.36;45.82
45040;BME280;30778;53.574;7.770;2023-09-30T07:29:13;102440.25;;;15.79;43.43
45040;BME280;30778;53.574;7.770;2023-09-30T07:31:38;102445.19;;;15.89;43.04
45040;BME280;30778;53.574;7.770;2023-09-30T07:34:04;102449.06;;;16.26;42.38
45040;BME280;30778;53.574;7.770;2023-09-30T07:36:30;102446.75;;;16.40;44.10
45040;BME280;30778;53.574;7.770;2023-09-30T07:38:56;102451.41;;;16.77;40.92
45040;BME280;30778;53.574;7.770;2023-09-30T07:41:22;102446.44;;;16.48;43.06
45040;BME280;30778;53.574;7.770;2023-09-30T07:43:48;102450.69;;;16.06;42.98
45040;BME280;30778;53.574;7.770;2023-09-30T07:46:14;102449.38;;;16.84;42.82
45040;BME280;30778;53.574;7.770;2023-09-30T07:48:41;102450.06;;;17.10;41.03
45040;BME280;30778;53.574;7.770;2023-09-30T07:51:07;102458.44;;;16.99;42.43
45040;BME280;30778;53.574;7.770;2023-09-30T07:53:39;102448.69;;;17.81;40.20
45040;BME280;30778;53.574;7.770;2023-09-30T07:56:06;102461.06;;;16.78;41.37
45040;BME280;30778;53.574;7.770;2023-09-30T07:58:31;102461.59;;;17.69;41.66
45040;BME280;30778;53.574;7.770;2023-09-30T08:00:58;102455.47;;;17.68;41.09
45040;BME280;30778;53.574;7.770;2023-09-30T08:03:24;102463.25;;;16.89;41.80
45040;BME280;30778;53.574;7.770;2023-09-30T08:05:49;102463.00;;;17.36;41.74
45040;BME280;30778;53.574;7.770;2023-09-30T08:08:16;102467.13;;;17.23;42.21
45040;BME280;30778;53.574;7.770;2023-09-30T08:10:45;102460.28;;;16.31;43.50
45040;BME280;30778;53.574;7.770;2023-09-30T08:13:10;102463.25;;;16.67;43.89
45040;BME280;30778;53.574;7.770;2023-09-30T08:15:36;102469.41;;;17.31;40.91
45040;BME280;30778;53.574;7.770;2023-09-30T08:18:03;102467.22;;;16.99;42.56
45040;BME280;30778;53.574;7.770;2023-09-30T08:20:31;102475.41;;;16.93;43.43
45040;BME280;30778;53.574;7.770;2023-09-30T08:22:57;102480.66;;;17.36;41.48
45040;BME280;30778;53.574;7.770;2023-09-30T08:25:23;102476.47;;;17.30;40.79
45040;BME280;30778;53.574;7.770;2023-09-30T08:27:48;102479.72;;;16.96;42.33
45040;BME280;30778;53.574;7.770;2023-09-30T08:30:15;102484.81;;;16.78;42.96
45040;BME280;30778;53.574;7.770;2023-09-30T08:32:41;102489.16;;;17.42;42.26
45040;BME280;30778;53.574;7.770;2023-09-30T08:35:07;102479.03;;;17.73;42.12
45040;BME280;30778;53.574;7.770;2023-09-30T08:37:33;102490.75;;;18.44;40.91
45040;BME280;30778;53.574;7.770;2023-09-30T08:39:59;102486.97;;;18.67;39.91
45040;BME280;30778;53.574;7.770;2023-09-30T08:42:26;102487.09;;;18.83;39.60
45040;BME280;30778;53.574;7.770;2023-09-30T08:44:57;102477.50;;;18.44;39.11
45040;BME280;30778;53.574;7.770;2023-09-30T08:47:26;102489.84;;;17.87;41.92
45040;BME280;30778;53.574;7.770;2023-09-30T08:49:53;102478.06;;;17.14;43.16
45040;BME280;30778;53.574;7.770;2023-09-30T08:52:22;102481.38;;;17.39;44.11
45040;BME280;30778;53.574;7.770;2023-09-30T08:54:48;102474.66;;;17.53;41.98
45040;BME280;30778;53.574;7.770;2023-09-30T08:57:14;102472.31;;;17.65;41.53
45040;BME280;30778;53.574;7.770;2023-09-30T08:59:43;102481.28;;;17.82;42.53
45040;BME280;30778;53.574;7.770;2023-09-30T09:02:10;102481.56;;;18.14;41.62
45040;BME280;30778;53.574;7.770;2023-09-30T09:04:39;102484.03;;;18.37;39.87
45040;BME280;30778;53.574;7.770;2023-09-30T09:07:05;102481.44;;;18.17;41.67
45040;BME280;30778;53.574;7.770;2023-09-30T09:09:31;102484.16;;;17.96;41.90
45040;BME280;30778;53.574;7.770;2023-09-30T09:11:58;102486.72;;;18.55;41.79
45040;BME280;30778;53.574;7.770;2023-09-30T09:14:40;102496.13;;;18.79;40.45
45040;BME280;30778;53.574;7.770;2023-09-30T09:17:11;102486.00;;;17.94;41.20
45040;BME280;30778;53.574;7.770;2023-09-30T09:19:37;102488.09;;;18.44;40.33
45040;BME280;30778;53.574;7.770;2023-09-30T09:22:03;102485.88;;;19.08;39.89
45040;BME280;30778;53.574;7.770;2023-09-30T09:24:33;102488.84;;;18.65;40.04
45040;BME280;30778;53.574;7.770;2023-09-30T09:27:06;102494.00;;;18.50;40.88
45040;BME280;30778;53.574;7.770;2023-09-30T09:29:32;102497.44;;;17.95;41.39
45040;BME280;30778;53.574;7.770;2023-09-30T09:32:17;102505.75;;;17.05;42.74
45040;BME280;30778;53.574;7.770;2023-09-30T09:34:44;102504.66;;;17.52;43.20
45040;BME280;30778;53.574;7.770;2023-09-30T09:37:20;102495.28;;;17.84;42.20
45040;BME280;30778;53.574;7.770;2023-09-30T09:39:56;102495.00;;;18.66;39.94
45040;BME280;30778;53.574;7.770;2023-09-30T09:42:29;102502.00;;;18.67;40.60
45040;BME280;30778;53.574;7.770;2023-09-30T09:44:57;102501.78;;;19.08;39.79
45040;BME280;30778;53.574;7.770;2023-09-30T09:47:24;102496.47;;;19.25;40.08
45040;BME280;30778;53.574;7.770;2023-09-30T09:49:51;102499.56;;;19.51;38.62
45040;BME280;30778;53.574;7.770;2023-09-30T09:52:19;102494.25;;;19.51;38.37
45040;BME280;30778;53.574;7.770;2023-09-30T09:54:45;102512.00;;;18.79;38.77
45040;BME280;30778;53.574;7.770;2023-09-30T09:57:17;102513.16;;;18.93;38.91
45040;BME280;30778;53.574;7.770;2023-09-30T09:59:44;102519.84;;;19.00;39.98
45040;BME280;30778;53.574;7.770;2023-09-30T10:02:15;102512.53;;;19.05;39.21
45040;BME280;30778;53.574;7.770;2023-09-30T10:04:42;102495.06;;;19.01;39.30
45040;BME280;30778;53.574;7.770;2023-09-30T10:09:38;102489.09;;;17.85;39.94
45040;BME280;30778;53.574;7.770;2023-09-30T10:12:05;102496.03;;;18.44;40.47
45040;BME280;30778;53.574;7.770;2023-09-30T10:14:34;102502.28;;;18.43;39.72
45040;BME280;30778;53.574;7.770;2023-09-30T10:17:02;102499.56;;;18.62;39.09
45040;BME280;30778;53.574;7.770;2023-09-30T10:19:29;102501.94;;;19.22;39.20
45040;BME280;30778;53.574;7.770;2023-09-30T10:24:58;102521.66;;;18.99;38.49
45040;BME280;30778;53.574;7.770;2023-09-30T10:29:56;102520.00;;;19.32;38.03
45040;BME280;30778;53.574;7.770;2023-09-30T10:32:23;102525.31;;;18.97;37.62
45040;BME280;30778;53.574;7.770;2023-09-30T10:35:08;102529.06;;;19.62;37.45
45040;BME280;30778;53.574;7.770;2023-09-30T10:37:34;102518.63;;;18.52;38.27
45040;BME280;30778;53.574;7.770;2023-09-30T10:40:00;102521.56;;;19.18;38.50
45040;BME280;30778;53.574;7.770;2023-09-30T10:42:47;102518.44;;;18.93;38.23
45040;BME280;30778;53.574;7.770;2023-09-30T10:50:54;102523.34;;;18.64;37.79
45040;BME280;30778;53.574;7.770;2023-09-30T10:53:21;102523.31;;;18.07;38.55
45040;BME280;30778;53.574;7.770;2023-09-30T10:55:54;102518.09;;;18.81;37.73
45040;BME280;30778;53.574;7.770;2023-09-30T10:58:20;102519.22;;;19.12;37.26
45040;BME280;30778;53.574;7.770;2023-09-30T11:00:55;102521.09;;;19.45;36.89
45040;BME280;30778;53.574;7.770;2023-09-30T11:03:22;102535.13;;;18.95;37.78
45040;BME280;30778;53.574;7.770;2023-09-30T11:05:48;102533.47;;;17.97;38.62
45040;BME280;30778;53.574;7.770;2023-09-30T11:08:20;102519.63;;;17.92;38.70
45040;BME280;30778;53.574;7.770;2023-09-30T11:10:52;102532.63;;;18.92;36.95
45040;BME280;30778;53.574;7.770;2023-09-30T11:13:20;102537.78;;;19.64;36.29
45040;BME280;30778;53.574;7.770;2023-09-30T11:15:46;102539.34;;;19.68;35.20
45040;BME280;30778;53.574;7.770;2023-09-30T11:18:17;102538.72;;;19.11;36.18
45040;BME280;30778;53.574;7.770;2023-09-30T11:20:43;102542.75;;;19.01;36.48
45040;BME280;30778;53.574;7.770;2023-09-30T11:23:12;102540.28;;;19.33;36.62
45040;BME280;30778;53.574;7.770;2023-09-30T11:25:38;102536.47;;;19.38;36.71
45040;BME280;30778;53.574;7.770;2023-09-30T11:28:18;102531.16;;;19.38;36.21
45040;BME280;30778;53.574;7.770;2023-09-30T11:31:00;102527.50;;;19.58;35.87
45040;BME280;30778;53.574;7.770;2023-09-30T11:33:28;102522.16;;;19.76;34.72
45040;BME280;30778;53.574;7.770;2023-09-30T11:36:03;102521.88;;;20.13;35.59
45040;BME280;30778;53.574;7.770;2023-09-30T11:38:32;102516.44;;;19.83;35.03
45040;BME280;30778;53.574;7.770;2023-09-30T11:40:59;102519.19;;;19.82;35.40
45040;BME280;30778;53.574;7.770;2023-09-30T11:43:28;102513.44;;;20.54;34.29
45040;BME280;30778;53.574;7.770;2023-09-30T11:46:08;102514.78;;;20.93;33.65
45040;BME280;30778;53.574;7.770;2023-09-30T11:48:35;102512.41;;;20.41;34.01
45040;BME280;30778;53.574;7.770;2023-09-30T11:51:01;102514.28;;;20.55;33.56
45040;BME280;30778;53.574;7.770;2023-09-30T11:53:30;102510.78;;;20.39;32.52
45040;BME280;30778;53.574;7.770;2023-09-30T11:55:59;102518.75;;;19.56;33.97
45040;BME280;30778;53.574;7.770;2023-09-30T11:58:26;102524.06;;;19.56;33.94
45040;BME280;30778;53.574;7.770;2023-09-30T12:00:57;102536.31;;;19.24;34.62
45040;BME280;30778;53.574;7.770;2023-09-30T12:03:25;102531.25;;;19.19;33.82
45040;BME280;30778;53.574;7.770;2023-09-30T12:05:53;102525.13;;;19.52;34.39
45040;BME280;30778;53.574;7.770;2023-09-30T12:08:21;102519.06;;;20.17;34.29
45040;BME280;30778;53.574;7.770;2023-09-30T12:10:47;102524.22;;;20.04;32.64
45040;BME280;30778;53.574;7.770;2023-09-30T12:13:14;102503.78;;;20.22;31.75
45040;BME280;30778;53.574;7.770;2023-09-30T12:15:41;102513.44;;;20.23;31.70
45040;BME280;30778;53.574;7.770;2023-09-30T12:18:08;102500.66;;;20.13;32.46
45040;BME280;30778;53.574;7.770;2023-09-30T12:20:35;102495.75;;;19.90;32.60
45040;BME280;30778;53.574;7.770;2023-09-30T12:23:01;102498.06;;;19.96;33.16
45040;BME280;30778;53.574;7.770;2023-09-30T12:25:30;102497.50;;;20.54;32.53
45040;BME280;30778;53.574;7.770;2023-09-30T12:27:55;102492.66;;;20.77;32.35
45040;BME280;30778;53.574;7.770;2023-09-30T12:30:21;102492.72;;;20.45;31.78
45040;BME280;30778;53.574;7.770;2023-09-30T12:32:47;102506.03;;;20.12;31.08
45040;BME280;30778;53.574;7.770;2023-09-30T12:35:12;102504.09;;;19.66;32.41
45040;BME280;30778;53.574;7.770;2023-09-30T12:37:38;102509.94;;;19.73;32.55
45040;BME280;30778;53.574;7.770;2023-09-30T12:40:07;102507.34;;;19.54;33.00
45040;BME280;30778;53.574;7.770;2023-09-30T12:42:33;102506.72;;;20.00;32.35
45040;BME280;30778;53.574;7.770;2023-09-30T12:45:00;102505.97;;;19.47;33.03
45040;BME280;30778;53.574;7.770;2023-09-30T12:47:26;102505.78;;;20.17;32.27
45040;BME280;30778;53.574;7.770;2023-09-30T12:49:52;102501.53;;;19.81;33.12
45040;BME280;30778;53.574;7.770;2023-09-30T12:52:20;102500.47;;;20.17;32.35
45040;BME280;30778;53.574;7.770;2023-09-30T12:54:45;102496.81;;;20.67;31.77
45040;BME280;30778;53.574;7.770;2023-09-30T12:57:11;102503.81;;;20.04;31.74
45040;BME280;30778;53.574;7.770;2023-09-30T12:59:39;102498.59;;;19.52;32.72
45040;BME280;30778;53.574;7.770;2023-09-30T13:02:04;102490.09;;;19.96;32.76
45040;BME280;30778;53.574;7.770;2023-09-30T13:04:31;102496.00;;;19.17;33.08
45040;BME280;30778;53.574;7.770;2023-09-30T13:06:56;102502.72;;;19.59;32.59
45040;BME280;30778;53.574;7.770;2023-09-30T13:09:22;102505.72;;;19.69;32.54